sensor_id;sensor_type;location;lat;lon;timestamp;pressure;altitude;pressure_sealevel;temperature;humidity
19114;BME280;9689;51.052;13.772;2023-05-19T00:01:24;101289.22;;;11.64;54.54
19114;BME280;9689;51.052;13.772;2023-05-19T00:06:28;101282.25;;;11.65;53.70
19114;BME280;9689;51.052;13.772;2023-05-19T00:11:32;101278.78;;;11.66;54.74
19114;BME280;9689;51.052;13.772;2023-05-19T00:16:35;101279.63;;;11.66;55.07
19114;BME280;9689;51.052;13.772;2023-05-19T00:21:37;101271.91;;;11.55;54.70
19114;BME280;9689;51.052;13.772;2023-05-19T00:26:40;101273.63;;;11.56;55.52
19114;BME280;9689;51.052;13.772;2023-05-19T00:31:41;101268.44;;;11.50;55.67
19114;BME280;9689;51.052;13.772;2023-05-19T00:36:42;101266.81;;;11.36;56.43
19114;BME280;9689;51.052;13.772;2023-05-19T00:41:46;101272.97;;;11.30;57.00
19114;BME280;9689;51.052;13.772;2023-05-19T00:46:47;101267.81;;;11.19;56.97
19114;BME280;9689;51.052;13.772;2023-05-19T00:51:48;101264.50;;;10.94;57.56
19114;BME280;9689;51.052;13.772;2023-05-19T00:56:50;101267.16;;;10.85;58.52
19114;BME280;9689;51.052;13.772;2023-05-19T01:01:51;101268.94;;;10.77;59.67
19114;BME280;9689;51.052;13.772;2023-05-19T01:06:52;101266.44;;;10.62;58.78
19114;BME280;9689;51.052;13.772;2023-05-19T01:11:54;101259.50;;;10.50;60.12
19114;BME280;9689;51.052;13.772;2023-05-19T01:17:00;101261.28;;;10.40;60.76
19114;BME280;9689;51.052;13.772;2023-05-19T01:22:25;101254.41;;;10.27;61.09
19114;BME280;9689;51.052;13.772;2023-05-19T01:28:02;101255.28;;;10.26;61.65
19114;BME280;9689;51.052;13.772;2023-05-19T01:33:13;101262.22;;;10.12;62.59
19114;BME280;9689;51.052;13.772;2023-05-19T01:38:16;101264.88;;;10.01;63.41
19114;BME280;9689;51.052;13.772;2023-05-19T01:43:19;101270.94;;;10.00;63.96
19114;BME280;9689;51.052;13.772;2023-05-19T01:48:22;101278.78;;;9.83;63.82
19114;BME280;9689;51.052;13.772;2023-05-19T01:53:23;101272.72;;;9.72;64.97
19114;BME280;9689;51.052;13.772;2023-05-19T01:58:30;101268.38;;;9.70;65.01
19114;BME280;9689;51.052;13.772;2023-05-19T02:03:45;101268.38;;;9.62;66.02
19114;BME280;9689;51.052;13.772;2023-05-19T02:08:56;101262.31;;;9.54;66.21
19114;BME280;9689;51.052;13.772;2023-05-19T02:14:00;101262.34;;;9.48;66.54
19114;BME280;9689;51.052;13.772;2023-05-19T02:19:03;101260.59;;;9.48;66.70
19114;BME280;9689;51.052;13.772;2023-05-19T02:24:05;101263.19;;;9.50;66.88
19114;BME280;9689;51.052;13.772;2023-05-19T02:29:06;101261.44;;;9.46;66.73
19114;BME280;9689;51.052;13.772;2023-05-19T02:34:08;101265.81;;;9.41;67.57
19114;BME280;9689;51.052;13.772;2023-05-19T02:39:09;101262.34;;;9.40;67.36
19114;BME280;9689;51.052;13.772;2023-05-19T02:44:10;101264.94;;;9.43;68.04
19114;BME280;9689;51.052;13.772;2023-05-19T02:49:12;101260.59;;;9.39;66.83
19114;BME280;9689;51.052;13.772;2023-05-19T02:54:13;101257.13;;;9.49;66.12
19114;BME280;9689;51.052;13.772;2023-05-19T02:59:13;101251.91;;;9.35;67.27
19114;BME280;9689;51.052;13.772;2023-05-19T03:04:15;101250.19;;;9.31;67.25
19114;BME280;9689;51.052;13.772;2023-05-19T03:09:18;101251.06;;;9.33;67.81
19114;BME280;9689;51.052;13.772;2023-05-19T03:14:19;101243.25;;;9.32;66.83
19114;BME280;9689;51.052;13.772;2023-05-19T03:19:23;101231.97;;;9.27;68.31
19114;BME280;9689;51.052;13.772;2023-05-19T03:24:24;101243.25;;;9.14;68.84
19114;BME280;9689;51.052;13.772;2023-05-19T03:29:25;101255.38;;;9.07;69.38
19114;BME280;9689;51.052;13.772;2023-05-19T03:34:27;101251.00;;;9.01;69.95
19114;BME280;9689;51.052;13.772;2023-05-19T03:39:29;101252.75;;;8.98;70.40
19114;BME280;9689;51.052;13.772;2023-05-19T03:44:30;101248.41;;;8.98;70.87
19114;BME280;9689;51.052;13.772;2023-05-19T03:49:33;101261.41;;;9.01;70.45
19114;BME280;9689;51.052;13.772;2023-05-19T03:54:57;101266.63;;;9.11;70.50
19114;BME280;9689;51.052;13.772;2023-05-19T03:59:57;101265.78;;;9.16;69.83
19114;BME280;9689;51.052;13.772;2023-05-19T04:04:59;101258.84;;;9.24;69.75
19114;BME280;9689;51.052;13.772;2023-05-19T04:10:04;101261.44;;;9.67;72.14
19114;BME280;9689;51.052;13.772;2023-05-19T04:15:06;101266.63;;;9.91;70.14
19114;BME280;9689;51.052;13.772;2023-05-19T04:20:11;101270.91;;;10.11;70.10
19114;BME280;9689;51.052;13.772;2023-05-19T04:25:12;101270.94;;;9.97;70.22
19114;BME280;9689;51.052;13.772;2023-05-19T04:30:13;101262.28;;;9.92;69.96
19114;BME280;9689;51.052;13.772;2023-05-19T04:35:21;101258.81;;;9.99;69.92
19114;BME280;9689;51.052;13.772;2023-05-19T04:40:22;101271.81;;;9.95;69.54
19114;BME280;9689;51.052;13.772;2023-05-19T04:45:24;101276.13;;;10.05;68.73
19114;BME280;9689;51.052;13.772;2023-05-19T04:50:29;101253.53;;;10.24;68.45
19114;BME280;9689;51.052;13.772;2023-05-19T04:55:32;101255.19;;;10.41;68.53
19114;BME280;9689;51.052;13.772;2023-05-19T05:00:34;101256.91;;;10.53;66.79
19114;BME280;9689;51.052;13.772;2023-05-19T05:05:39;101257.72;;;10.63;63.68
19114;BME280;9689;51.052;13.772;2023-05-19T05:10:41;101254.31;;;10.53;63.04
19114;BME280;9689;51.052;13.772;2023-05-19T05:15:42;101259.41;;;10.78;62.35
19114;BME280;9689;51.052;13.772;2023-05-19T05:20:45;101257.59;;;10.89;62.57
19114;BME280;9689;51.052;13.772;2023-05-19T05:25:47;101252.06;;;11.33;60.92
19114;BME280;9689;51.052;13.772;2023-05-19T05:30:48;101253.69;;;11.48;59.97
19114;BME280;9689;51.052;13.772;2023-05-19T05:35:51;101248.97;;;11.88;59.55
19114;BME280;9689;51.052;13.772;2023-05-19T05:40:52;101251.53;;;11.94;57.84
19114;BME280;9689;51.052;13.772;2023-05-19T05:45:52;101259.91;;;12.25;58.11
19114;BME280;9689;51.052;13.772;2023-05-19T05:50:55;101257.13;;;12.39;57.19
19114;BME280;9689;51.052;13.772;2023-05-19T05:56:00;101260.53;;;12.45;56.51
19114;BME280;9689;51.052;13.772;2023-05-19T06:01:10;101268.13;;;12.64;56.27
19114;BME280;9689;51.052;13.772;2023-05-19T06:06:13;101263.91;;;12.54;57.01
19114;BME280;9689;51.052;13.772;2023-05-19T06:11:14;101268.31;;;12.49;57.13
19114;BME280;9689;51.052;13.772;2023-05-19T06:16:15;101261.66;;;12.91;56.50
19114;BME280;9689;51.052;13.772;2023-05-19T06:21:19;101259.66;;;13.65;54.79
19114;BME280;9689;51.052;13.772;2023-05-19T06:26:21;101261.75;;;13.94;53.36
19114;BME280;9689;51.052;13.772;2023-05-19T06:31:22;101253.31;;;13.77;54.01
19114;BME280;9689;51.052;13.772;2023-05-19T06:36:29;101258.34;;;13.89;53.91
19114;BME280;9689;51.052;13.772;2023-05-19T06:41:30;101245.59;;;14.15;53.53
19114;BME280;9689;51.052;13.772;2023-05-19T06:46:31;101242.28;;;14.06;54.55
19114;BME280;9689;51.052;13.772;2023-05-19T06:51:33;101237.66;;;13.75;54.17
19114;BME280;9689;51.052;13.772;2023-05-19T06:56:34;101232.03;;;13.95;54.37
19114;BME280;9689;51.052;13.772;2023-05-19T07:01:34;101241.47;;;14.04;53.19
19114;BME280;9689;51.052;13.772;2023-05-19T07:06:37;101237.69;;;14.19;52.84
19114;BME280;9689;51.052;13.772;2023-05-19T07:11:38;101232.00;;;13.97;53.22
19114;BME280;9689;51.052;13.772;2023-05-19T07:16:40;101230.00;;;14.09;54.15
19114;BME280;9689;51.052;13.772;2023-05-19T07:21:42;101232.81;;;14.00;53.17
19114;BME280;9689;51.052;13.772;2023-05-19T07:26:43;101235.00;;;14.22;53.79
19114;BME280;9689;51.052;13.772;2023-05-19T07:31:43;101233.72;;;14.41;52.73
19114;BME280;9689;51.052;13.772;2023-05-19T07:36:45;101234.00;;;14.70;52.93
19114;BME280;9689;51.052;13.772;2023-05-19T07:41:46;101227.56;;;14.42;52.98
19114;BME280;9689;51.052;13.772;2023-05-19T07:46:51;101233.34;;;14.59;51.98
19114;BME280;9689;51.052;13.772;2023-05-19T07:51:53;101221.63;;;14.35;52.09
19114;BME280;9689;51.052;13.772;2023-05-19T07:56:53;101218.53;;;14.15;51.79
19114;BME280;9689;51.052;13.772;2023-05-19T08:01:54;101200.28;;;14.10;50.12
19114;BME280;9689;51.052;13.772;2023-05-19T08:06:56;101198.19;;;14.28;50.26
19114;BME280;9689;51.052;13.772;2023-05-19T08:11:57;101211.34;;;14.66;51.30
19114;BME280;9689;51.052;13.772;2023-05-19T08:16:59;101208.28;;;14.85;50.04
19114;BME280;9689;51.052;13.772;2023-05-19T08:22:02;101201.88;;;14.98;49.23
19114;BME280;9689;51.052;13.772;2023-05-19T08:27:03;101208.66;;;15.07;49.64
19114;BME280;9689;51.052;13.772;2023-05-19T08:32:04;101206.78;;;15.47;49.72
19114;BME280;9689;51.052;13.772;2023-05-19T08:37:06;101200.53;;;15.86;48.96
19114;BME280;9689;51.052;13.772;2023-05-19T08:42:07;101189.56;;;16.02;48.39
19114;BME280;9689;51.052;13.772;2023-05-19T08:47:08;101187.53;;;16.12;48.97
19114;BME280;9689;51.052;13.772;2023-05-19T08:52:24;101186.19;;;15.97;49.09
19114;BME280;9689;51.052;13.772;2023-05-19T08:57:27;101188.97;;;16.22;48.23
19114;BME280;9689;51.052;13.772;2023-05-19T09:02:29;101188.72;;;16.61;48.34
19114;BME280;9689;51.052;13.772;2023-05-19T09:07:31;101184.13;;;16.66;46.59
19114;BME280;9689;51.052;13.772;2023-05-19T09:12:33;101184.06;;;16.39;47.38
19114;BME280;9689;51.052;13.772;2023-05-19T09:17:34;101171.75;;;16.71;46.81
19114;BME280;9689;51.052;13.772;2023-05-19T09:22:41;101170.66;;;16.78;43.95
19114;BME280;9689;51.052;13.772;2023-05-19T09:27:45;101166.88;;;16.57;44.82
19114;BME280;9689;51.052;13.772;2023-05-19T09:32:45;101167.66;;;16.89;44.98
19114;BME280;9689;51.052;13.772;2023-05-19T09:37:47;101168.53;;;16.89;44.98
19114;BME280;9689;51.052;13.772;2023-05-19T09:42:48;101160.06;;;17.58;43.49
19114;BME280;9689;51.052;13.772;2023-05-19T09:47:49;101155.31;;;17.67;42.05
19114;BME280;9689;51.052;13.772;2023-05-19T09:52:52;101148.72;;;17.56;42.22
19114;BME280;9689;51.052;13.772;2023-05-19T09:57:53;101143.00;;;16.91;42.91
19114;BME280;9689;51.052;13.772;2023-05-19T10:02:55;101129.41;;;17.55;43.83
19114;BME280;9689;51.052;13.772;2023-05-19T10:07:58;101132.81;;;18.07;42.54
19114;BME280;9689;51.052;13.772;2023-05-19T10:12:59;101125.66;;;18.32;42.27
19114;BME280;9689;51.052;13.772;2023-05-19T10:18:01;101130.41;;;18.46;42.54
19114;BME280;9689;51.052;13.772;2023-05-19T10:23:04;101127.50;;;18.30;42.49
19114;BME280;9689;51.052;13.772;2023-05-19T10:28:08;101109.16;;;17.32;43.64
19114;BME280;9689;51.052;13.772;2023-05-19T10:33:14;101113.78;;;16.99;45.36
19114;BME280;9689;51.052;13.772;2023-05-19T10:38:23;101111.81;;;17.06;45.61
19114;BME280;9689;51.052;13.772;2023-05-19T10:43:38;101111.28;;;17.46;45.89
19114;BME280;9689;51.052;13.772;2023-05-19T10:48:44;101106.91;;;17.46;45.23
19114;BME280;9689;51.052;13.772;2023-05-19T10:53:46;101125.28;;;17.23;45.94
19114;BME280;9689;51.052;13.772;2023-05-19T10:58:49;101102.41;;;17.48;45.58
19114;BME280;9689;51.052;13.772;2023-05-19T11:03:51;101104.41;;;17.42;44.19
19114;BME280;9689;51.052;13.772;2023-05-19T11:08:56;101107.72;;;17.72;44.68
19114;BME280;9689;51.052;13.772;2023-05-19T11:13:58;101116.34;;;18.00;44.54
19114;BME280;9689;51.052;13.772;2023-05-19T11:18:59;101112.13;;;17.73;44.55
19114;BME280;9689;51.052;13.772;2023-05-19T11:24:01;101105.44;;;17.86;44.68
19114;BME280;9689;51.052;13.772;2023-05-19T11:29:07;101094.69;;;17.67;44.52
19114;BME280;9689;51.052;13.772;2023-05-19T11:34:08;101093.97;;;18.32;43.77
19114;BME280;9689;51.052;13.772;2023-05-19T11:39:11;101104.50;;;18.56;42.83
19114;BME280;9689;51.052;13.772;2023-05-19T11:44:11;101095.94;;;18.93;42.69
19114;BME280;9689;51.052;13.772;2023-05-19T11:49:16;101077.41;;;19.35;42.05
19114;BME280;9689;51.052;13.772;2023-05-19T11:54:18;101088.63;;;19.40;42.38
19114;BME280;9689;51.052;13.772;2023-05-19T11:59:28;101087.22;;;19.52;40.66
19114;BME280;9689;51.052;13.772;2023-05-19T12:04:31;101087.41;;;19.29;41.68
19114;BME280;9689;51.052;13.772;2023-05-19T12:09:33;101097.47;;;18.99;42.72
19114;BME280;9689;51.052;13.772;2023-05-19T12:14:36;101106.00;;;19.05;42.14
19114;BME280;9689;51.052;13.772;2023-05-19T12:19:37;101088.06;;;19.13;41.67
19114;BME280;9689;51.052;13.772;2023-05-19T12:24:39;101096.53;;;18.79;43.31
19114;BME280;9689;51.052;13.772;2023-05-19T12:29:41;101085.47;;;18.48;45.31
19114;BME280;9689;51.052;13.772;2023-05-19T12:34:41;101071.06;;;19.19;43.14
19114;BME280;9689;51.052;13.772;2023-05-19T12:39:44;101069.13;;;18.82;43.36
19114;BME280;9689;51.052;13.772;2023-05-19T12:44:46;101083.22;;;18.60;43.36
19114;BME280;9689;51.052;13.772;2023-05-19T12:49:54;101081.53;;;18.36;44.61
19114;BME280;9689;51.052;13.772;2023-05-19T12:55:00;101080.13;;;18.27;45.32
19114;BME280;9689;51.052;13.772;2023-05-19T13:00:06;101069.53;;;18.51;45.03
19114;BME280;9689;51.052;13.772;2023-05-19T13:05:09;101067.88;;;18.90;43.75
19114;BME280;9689;51.052;13.772;2023-05-19T13:10:11;101068.41;;;19.19;43.06
19114;BME280;9689;51.052;13.772;2023-05-19T13:15:11;101059.28;;;19.67;42.65
19114;BME280;9689;51.052;13.772;2023-05-19T13:20:12;101067.66;;;18.75;45.25
19114;BME280;9689;51.052;13.772;2023-05-19T13:25:15;101067.13;;;19.29;43.45
19114;BME280;9689;51.052;13.772;2023-05-19T13:30:16;101059.84;;;19.14;42.91
19114;BME280;9689;51.052;13.772;2023-05-19T13:35:17;101065.94;;;18.96;45.33
19114;BME280;9689;51.052;13.772;2023-05-19T13:40:19;101063.47;;;18.91;43.82
19114;BME280;9689;51.052;13.772;2023-05-19T13:45:21;101062.09;;;18.60;46.47
19114;BME280;9689;51.052;13.772;2023-05-19T13:50:22;101066.75;;;18.32;46.95
19114;BME280;9689;51.052;13.772;2023-05-19T13:55:24;101065.91;;;18.53;46.10
19114;BME280;9689;51.052;13.772;2023-05-19T14:00:25;101064.78;;;18.81;45.59
19114;BME280;9689;51.052;13.772;2023-05-19T14:05:27;101053.50;;;19.18;43.69
19114;BME280;9689;51.052;13.772;2023-05-19T14:10:30;101057.91;;;19.17;44.32
19114;BME280;9689;51.052;13.772;2023-05-19T14:15:32;101063.25;;;18.75;46.08
19114;BME280;9689;51.052;13.772;2023-05-19T14:20:36;101065.47;;;18.86;46.48
19114;BME280;9689;51.052;13.772;2023-05-19T14:25:38;101069.22;;;18.36;47.11
19114;BME280;9689;51.052;13.772;2023-05-19T14:30:39;101062.31;;;18.32;46.54
19114;BME280;9689;51.052;13.772;2023-05-19T14:35:40;101057.38;;;18.69;46.67
19114;BME280;9689;51.052;13.772;2023-05-19T14:40:42;101055.53;;;19.32;45.18
19114;BME280;9689;51.052;13.772;2023-05-19T14:45:43;101057.84;;;19.19;44.92
19114;BME280;9689;51.052;13.772;2023-05-19T14:50:45;101053.19;;;18.19;46.73
19114;BME280;9689;51.052;13.772;2023-05-19T14:55:48;101062.09;;;18.17;47.92
19114;BME280;9689;51.052;13.772;2023-05-19T15:00:48;101062.38;;;18.09;49.00
19114;BME280;9689;51.052;13.772;2023-05-19T15:05:49;101079.72;;;18.16;48.51
19114;BME280;9689;51.052;13.772;2023-05-19T15:10:51;101080.03;;;17.60;49.09
19114;BME280;9689;51.052;13.772;2023-05-19T15:15:52;101087.06;;;17.60;49.84
19114;BME280;9689;51.052;13.772;2023-05-19T15:21:13;101078.94;;;17.91;49.06
19114;BME280;9689;51.052;13.772;2023-05-19T15:26:15;101080.28;;;18.01;49.15
19114;BME280;9689;51.052;13.772;2023-05-19T15:31:16;101088.06;;;18.04;49.03
19114;BME280;9689;51.052;13.772;2023-05-19T15:36:17;101083.16;;;17.95;48.80
19114;BME280;9689;51.052;13.772;2023-05-19T15:41:19;101091.34;;;17.64;48.97
19114;BME280;9689;51.052;13.772;2023-05-19T15:46:20;101089.84;;;17.32;50.96
19114;BME280;9689;51.052;13.772;2023-05-19T15:51:21;101094.03;;;17.12;50.74
19114;BME280;9689;51.052;13.772;2023-05-19T15:56:23;101092.69;;;17.26;51.05
19114;BME280;9689;51.052;13.772;2023-05-19T16:01:24;101090.75;;;17.31;52.10
19114;BME280;9689;51.052;13.772;2023-05-19T16:06:25;101104.16;;;16.98;51.21
19114;BME280;9689;51.052;13.772;2023-05-19T16:11:27;101108.78;;;16.63;52.50
19114;BME280;9689;51.052;13.772;2023-05-19T16:16:28;101119.13;;;16.42;53.12
19114;BME280;9689;51.052;13.772;2023-05-19T16:21:29;101124.53;;;16.37;53.42
19114;BME280;9689;51.052;13.772;2023-05-19T16:26:31;101123.16;;;16.24;53.95
19114;BME280;9689;51.052;13.772;2023-05-19T16:31:32;101116.09;;;15.96;53.66
19114;BME280;9689;51.052;13.772;2023-05-19T16:36:33;101124.69;;;15.72;54.07
19114;BME280;9689;51.052;13.772;2023-05-19T16:41:36;101121.47;;;15.62;53.65
19114;BME280;9689;51.052;13.772;2023-05-19T16:46:36;101137.22;;;15.62;54.96
19114;BME280;9689;51.052;13.772;2023-05-19T16:51:37;101133.16;;;15.50;55.11
19114;BME280;9689;51.052;13.772;2023-05-19T16:56:39;101138.03;;;15.32;55.67
19114;BME280;9689;51.052;13.772;2023-05-19T17:01:40;101124.59;;;15.42;55.46
19114;BME280;9689;51.052;13.772;2023-05-19T17:06:40;101131.06;;;15.31;55.68
19114;BME280;9689;51.052;13.772;2023-05-19T17:11:42;101115.91;;;15.40;56.04
19114;BME280;9689;51.052;13.772;2023-05-19T17:16:43;101125.16;;;15.53;56.03
19114;BME280;9689;51.052;13.772;2023-05-19T17:21:45;101129.91;;;15.41;56.76
19114;BME280;9689;51.052;13.772;2023-05-19T17:26:47;101121.88;;;15.45;56.83
19114;BME280;9689;51.052;13.772;2023-05-19T17:31:47;101128.03;;;15.44;56.40
19114;BME280;9689;51.052;13.772;2023-05-19T17:36:48;101124.81;;;15.35;57.03
19114;BME280;9689;51.052;13.772;2023-05-19T17:41:50;101144.00;;;15.37;56.85
19114;BME280;9689;51.052;13.772;2023-05-19T17:46:51;101149.94;;;15.11;57.10
19114;BME280;9689;51.052;13.772;2023-05-19T17:51:52;101144.00;;;15.04;57.60
19114;BME280;9689;51.052;13.772;2023-05-19T17:56:57;101151.25;;;14.94;57.94
19114;BME280;9689;51.052;13.772;2023-05-19T18:01:58;101155.03;;;14.81;58.62
19114;BME280;9689;51.052;13.772;2023-05-19T18:06:59;101136.00;;;14.73;58.89
19114;BME280;9689;51.052;13.772;2023-05-19T18:12:03;101138.53;;;14.76;59.08
19114;BME280;9689;51.052;13.772;2023-05-19T18:17:04;101136.13;;;14.67;59.00
19114;BME280;9689;51.052;13.772;2023-05-19T18:22:05;101136.50;;;14.50;59.99
19114;BME280;9689;51.052;13.772;2023-05-19T18:27:07;101150.34;;;14.57;60.07
19114;BME280;9689;51.052;13.772;2023-05-19T18:32:07;101145.13;;;14.57;60.55
19114;BME280;9689;51.052;13.772;2023-05-19T18:37:08;101136.41;;;14.55;60.65
19114;BME280;9689;51.052;13.772;2023-05-19T18:42:10;101140.13;;;14.46;60.80
19114;BME280;9689;51.052;13.772;2023-05-19T18:47:11;101143.69;;;14.40;61.03
19114;BME280;9689;51.052;13.772;2023-05-19T18:52:12;101141.34;;;14.28;61.32
19114;BME280;9689;51.052;13.772;2023-05-19T18:57:14;101143.19;;;14.25;60.97
19114;BME280;9689;51.052;13.772;2023-05-19T19:02:14;101154.91;;;14.08;62.04
19114;BME280;9689;51.052;13.772;2023-05-19T19:07:15;101159.47;;;13.97;62.63
19114;BME280;9689;51.052;13.772;2023-05-19T19:12:17;101157.72;;;13.99;62.32
19114;BME280;9689;51.052;13.772;2023-05-19T19:17:19;101159.44;;;14.00;62.34
19114;BME280;9689;51.052;13.772;2023-05-19T19:22:20;101154.56;;;13.82;63.28
19114;BME280;9689;51.052;13.772;2023-05-19T19:27:22;101156.22;;;13.86;63.99
19114;BME280;9689;51.052;13.772;2023-05-19T19:32:24;101153.63;;;13.84;63.77
19114;BME280;9689;51.052;13.772;2023-05-19T19:37:25;101151.94;;;13.82;63.90
19114;BME280;9689;51.052;13.772;2023-05-19T19:42:28;101155.47;;;13.79;64.28
19114;BME280;9689;51.052;13.772;2023-05-19T19:47:30;101169.47;;;13.78;64.26
19114;BME280;9689;51.052;13.772;2023-05-19T19:52:31;101159.22;;;13.66;64.25
19114;BME280;9689;51.052;13.772;2023-05-19T19:57:33;101157.31;;;13.74;64.38
19114;BME280;9689;51.052;13.772;2023-05-19T20:02:35;101158.22;;;13.72;64.62
19114;BME280;9689;51.052;13.772;2023-05-19T20:07:54;101163.66;;;13.63;64.37
19114;BME280;9689;51.052;13.772;2023-05-19T20:12:56;101161.00;;;13.66;64.30
19114;BME280;9689;51.052;13.772;2023-05-19T20:17:57;101166.47;;;13.52;65.36
19114;BME280;9689;51.052;13.772;2023-05-19T20:22:58;101166.53;;;13.49;65.09
19114;BME280;9689;51.052;13.772;2023-05-19T20:28:00;101165.63;;;13.50;65.33
19114;BME280;9689;51.052;13.772;2023-05-19T20:33:01;101162.91;;;13.54;65.63
19114;BME280;9689;51.052;13.772;2023-05-19T20:38:02;101163.03;;;13.50;65.62
19114;BME280;9689;51.052;13.772;2023-05-19T20:43:04;101163.16;;;13.42;65.89
19114;BME280;9689;51.052;13.772;2023-05-19T20:48:05;101164.03;;;13.43;66.01
19114;BME280;9689;51.052;13.772;2023-05-19T20:53:05;101170.09;;;13.45;66.21
19114;BME280;9689;51.052;13.772;2023-05-19T20:58:08;101163.09;;;13.45;66.07
19114;BME280;9689;51.052;13.772;2023-05-19T21:03:08;101159.59;;;13.45;66.41
19114;BME280;9689;51.052;13.772;2023-05-19T21:08:10;101151.00;;;13.40;66.60
19114;BME280;9689;51.052;13.772;2023-05-19T21:13:12;101152.47;;;13.53;66.45
19114;BME280;9689;51.052;13.772;2023-05-19T21:18:13;101163.00;;;13.51;66.51
19114;BME280;9689;51.052;13.772;2023-05-19T21:23:14;101159.56;;;13.48;66.21
19114;BME280;9689;51.052;13.772;2023-05-19T21:28:16;101158.00;;;13.38;66.34
19114;BME280;9689;51.052;13.772;2023-05-19T21:33:16;101162.50;;;13.31;67.16
19114;BME280;9689;51.052;13.772;2023-05-19T21:38:17;101164.34;;;13.24;66.96
19114;BME280;9689;51.052;13.772;2023-05-19T21:43:24;101166.97;;;13.24;67.56
19114;BME280;9689;51.052;13.772;2023-05-19T21:48:24;101166.06;;;13.25;67.07
19114;BME280;9689;51.052;13.772;2023-05-19T21:53:25;101165.50;;;13.07;67.48
19114;BME280;9689;51.052;13.772;2023-05-19T21:58:27;101162.75;;;13.14;67.81
19114;BME280;9689;51.052;13.772;2023-05-19T22:03:28;101153.09;;;13.16;67.68
19114;BME280;9689;51.052;13.772;2023-05-19T22:08:28;101157.47;;;13.16;67.58
19114;BME280;9689;51.052;13.772;2023-05-19T22:13:30;101154.97;;;13.10;67.51
19114;BME280;9689;51.052;13.772;2023-05-19T22:18:32;101161.09;;;13.09;68.01
19114;BME280;9689;51.052;13.772;2023-05-19T22:23:33;101153.16;;;13.12;68.34
19114;BME280;9689;51.052;13.772;2023-05-19T22:28:35;101162.81;;;13.10;68.44
19114;BME280;9689;51.052;13.772;2023-05-19T22:33:35;101159.44;;;13.03;68.61
19114;BME280;9689;51.052;13.772;2023-05-19T22:38:36;101155.88;;;13.07;69.10
19114;BME280;9689;51.052;13.772;2023-05-19T22:43:38;101148.00;;;13.09;68.60
19114;BME280;9689;51.052;13.772;2023-05-19T22:48:39;101155.09;;;13.04;69.05
19114;BME280;9689;51.052;13.772;2023-05-19T22:53:39;101151.63;;;13.00;69.15
19114;BME280;9689;51.052;13.772;2023-05-19T22:58:42;101139.28;;;13.08;68.71
19114;BME280;9689;51.052;13.772;2023-05-19T23:03:42;101125.38;;;13.06;68.56
19114;BME280;9689;51.052;13.772;2023-05-19T23:08:44;101123.53;;;13.11;68.26
19114;BME280;9689;51.052;13.772;2023-05-19T23:13:46;101137.63;;;13.04;68.57
19114;BME280;9689;51.052;13.772;2023-05-19T23:18:47;101142.84;;;13.06;68.75
19114;BME280;9689;51.052;13.772;2023-05-19T23:23:48;101155.91;;;13.06;69.56
19114;BME280;9689;51.052;13.772;2023-05-19T23:28:50;101154.34;;;12.95;69.99
19114;BME280;9689;51.052;13.772;2023-05-19T23:33:50;101144.78;;;12.91;70.13
19114;BME280;9689;51.052;13.772;2023-05-19T23:38:51;101150.94;;;12.89;70.26
19114;BME280;9689;51.052;13.772;2023-05-19T23:43:53;101143.25;;;12.80;70.48
19114;BME280;9689;51.052;13.772;2023-05-19T23:48:54;101148.59;;;12.72;70.39
19114;BME280;9689;51.052;13.772;2023-05-19T23:53:54;101148.66;;;12.67;70.26
19114;BME280;9689;51.052;13.772;2023-05-19T23:58:56;101157.72;;;12.42;72.58
